Time;durP1;ratioP1;P1;durP2;ratioP2;P2;SDS_P1;SDS_P2;PMS_P1;PMS_P2;Temp;Humidity;BMP_temperature;BMP_pressure;BME280_temperature;BME280_humidity;BME280_pressure;Samples;Min_cycle;Max_cycle;Signal;HPM_P1;HPM_P2
2023/05/12 00:00:46;;;;;;;47.50;31.58;;;;;;;13.14;100.00;100774.16;4968081;28;20573;-79
2023/05/12 00:03:13;;;;;;;46.53;30.27;;;;;;;13.16;100.00;100775.66;4964451;28;20046;-78
2023/05/12 00:05:40;;;;;;;45.17;30.55;;;;;;;13.14;100.00;100779.41;4958493;28;20113;-78
2023/05/12 00:08:07;;;;;;;45.97;30.27;;;;;;;13.14;100.00;100768.91;4954349;28;20121;-78
2023/05/12 00:10:35;;;;;;;43.33;30.48;;;;;;;13.16;100.00;100769.59;4966593;28;20452;-79
2023/05/12 00:13:02;;;;;;;50.60;31.30;;;;;;;13.07;100.00;100765.31;4954888;28;20421;-79
2023/05/12 00:15:29;;;;;;;45.55;29.08;;;;;;;13.12;100.00;100757.75;4954652;28;20121;-79
2023/05/12 00:17:55;;;;;;;53.22;30.58;;;;;;;13.05;100.00;100756.78;4954456;28;20055;-78
2023/05/12 00:20:22;;;;;;;57.17;33.35;;;;;;;13.03;100.00;100758.75;4954479;28;20075;-78
2023/05/12 00:22:49;;;;;;;56.70;29.67;;;;;;;13.02;100.00;100757.09;4963524;28;20054;-78
2023/05/12 00:25:15;;;;;;;53.08;30.88;;;;;;;13.00;100.00;100754.66;4959332;28;20134;-78
2023/05/12 00:27:43;;;;;;;64.00;32.67;;;;;;;12.94;100.00;100756.13;4965282;28;20082;-78
2023/05/12 00:30:11;;;;;;;56.47;32.85;;;;;;;12.98;100.00;100766.31;4962567;28;20467;-78
2023/05/12 00:32:37;;;;;;;58.88;32.55;;;;;;;12.91;100.00;100756.47;4955910;28;20051;-78
2023/05/12 00:35:05;;;;;;;63.30;32.95;;;;;;;12.86;100.00;100750.09;4956961;28;20051;-78
2023/05/12 00:37:31;;;;;;;60.88;33.25;;;;;;;12.97;100.00;100754.97;4956403;28;20094;-79
2023/05/12 00:39:58;;;;;;;63.45;34.50;;;;;;;12.92;100.00;100759.91;4968728;28;20448;-78
2023/05/12 00:42:25;;;;;;;56.72;34.00;;;;;;;12.94;100.00;100757.94;4955665;28;20138;-79
2023/05/12 00:44:53;;;;;;;59.50;34.13;;;;;;;12.91;100.00;100763.53;4954668;28;20051;-78
2023/05/12 00:47:20;;;;;;;64.80;35.10;;;;;;;12.98;100.00;100758.44;4958343;28;20139;-77
2023/05/12 00:49:47;;;;;;;61.30;35.20;;;;;;;12.96;100.00;100761.22;4960997;28;20051;-78
2023/05/12 00:52:14;;;;;;;61.55;34.92;;;;;;;12.96;100.00;100753.34;4959065;28;20065;-78
2023/05/12 00:54:43;;;;;;;60.72;33.80;;;;;;;12.98;100.00;100755.81;4953034;28;20079;-77
2023/05/12 00:57:10;;;;;;;56.75;32.88;;;;;;;12.95;100.00;100755.16;4952228;28;20081;-77
2023/05/12 00:59:37;;;;;;;59.60;32.42;;;;;;;13.00;100.00;100749.41;4957324;28;20477;-78
2023/05/12 01:02:06;;;;;;;55.22;31.52;;;;;;;13.03;100.00;100754.31;4967507;28;20070;-78
2023/05/12 01:04:33;;;;;;;52.33;31.40;;;;;;;13.08;100.00;100756.44;4968460;28;20468;-78
2023/05/12 01:07:04;;;;;;;53.60;30.38;;;;;;;13.14;100.00;100755.75;4952148;28;20526;-78
2023/05/12 01:09:31;;;;;;;45.13;28.65;;;;;;;13.12;100.00;100755.13;4953446;28;20613;-78
2023/05/12 01:11:57;;;;;;;45.35;27.80;;;;;;;13.03;100.00;100750.88;4952673;28;20051;-78
2023/05/12 01:14:24;;;;;;;42.63;26.85;;;;;;;13.00;100.00;100741.50;4952623;28;20054;-79
2023/05/12 01:16:52;;;;;;;45.55;27.05;;;;;;;13.05;100.00;100751.53;4952424;28;20051;-78
2023/05/12 01:19:33;;;;;;;42.33;24.67;;;;;;;12.98;100.00;100740.03;4952490;28;20055;-78
2023/05/12 01:22:00;;;;;;;40.35;24.13;;;;;;;12.89;100.00;100742.69;4959449;28;20062;-77
2023/05/12 01:24:32;;;;;;;45.60;26.35;;;;;;;12.91;100.00;100739.91;4951541;28;20490;-76
2023/05/12 01:27:00;;;;;;;39.53;24.42;;;;;;;12.91;100.00;100737.28;4969934;28;20472;-76
2023/05/12 01:29:28;;;;;;;40.92;24.42;;;;;;;12.93;100.00;100744.00;4970106;28;20054;-77
2023/05/12 01:31:55;;;;;;;42.10;24.80;;;;;;;12.92;100.00;100737.09;4999158;23;20137;-80
2023/05/12 01:34:21;;;;;;;39.95;24.20;;;;;;;12.90;100.00;100740.88;5038805;28;20128;-81
2023/05/12 01:36:48;;;;;;;41.42;23.83;;;;;;;12.91;100.00;100734.66;5028305;28;20128;-82
2023/05/12 01:39:15;;;;;;;42.72;24.65;;;;;;;12.93;100.00;100736.13;5036482;28;20128;-82
2023/05/12 01:41:41;;;;;;;44.30;25.60;;;;;;;12.91;100.00;100735.47;5036565;28;20056;-81
2023/05/12 01:44:09;;;;;;;40.28;25.00;;;;;;;12.96;100.00;100741.03;5036590;28;20069;-82
2023/05/12 01:46:36;;;;;;;42.65;24.80;;;;;;;12.89;100.00;100731.38;5030646;28;20114;-80
2023/05/12 01:49:03;;;;;;;42.15;24.50;;;;;;;12.98;100.00;100729.53;5027360;28;20049;-82
2023/05/12 01:51:29;;;;;;;40.13;24.30;;;;;;;12.98;100.00;100724.28;5034839;28;20113;-79
2023/05/12 01:53:56;;;;;;;39.30;24.35;;;;;;;12.92;100.00;100710.84;5041428;28;20105;-82
2023/05/12 01:56:22;;;;;;;38.67;24.50;;;;;;;12.83;100.00;100684.75;5039955;28;20131;-80
2023/05/12 01:58:49;;;;;;;37.30;23.20;;;;;;;12.76;100.00;100678.59;5026981;28;20049;-79
2023/05/12 02:01:20;;;;;;;37.10;21.83;;;;;;;12.74;100.00;100691.06;5037181;28;20095;-81
2023/05/12 02:03:46;;;;;;;38.83;24.35;;;;;;;12.73;100.00;100690.22;5040144;28;20065;-82
2023/05/12 02:06:13;;;;;;;37.63;23.35;;;;;;;12.79;100.00;100699.22;5035467;28;20049;-81
2023/05/12 02:08:40;;;;;;;33.92;23.08;;;;;;;12.83;100.00;100706.59;5031597;28;20113;-81
2023/05/12 02:11:07;;;;;;;34.78;21.92;;;;;;;12.82;100.00;100707.56;5038128;28;20131;-81
2023/05/12 02:13:33;;;;;;;36.05;23.02;;;;;;;12.94;100.00;100713.28;5038246;28;20131;-80
2023/05/12 02:16:00;;;;;;;32.92;21.95;;;;;;;12.90;100.00;100715.44;5037970;28;20124;-81
2023/05/12 02:18:28;;;;;;;35.50;22.63;;;;;;;12.90;100.00;100710.19;5038636;28;20050;-81
2023/05/12 02:20:55;;;;;;;33.28;22.80;;;;;;;12.94;100.00;100713.28;5037530;28;20113;-80
2023/05/12 02:23:21;;;;;;;38.83;23.75;;;;;;;12.95;100.00;100705.25;5037604;28;20064;-81
2023/05/12 02:25:48;;;;;;;35.60;22.73;;;;;;;13.02;100.00;100721.16;5028816;28;20366;-80
2023/05/12 02:28:19;;;;;;;30.17;21.52;;;;;;;12.96;100.00;100716.56;5039830;28;20084;-81
2023/05/12 02:30:47;;;;;;;31.65;20.40;;;;;;;12.95;100.00;100728.88;5035520;28;20111;-81
2023/05/12 02:33:14;;;;;;;31.83;20.83;;;;;;;13.02;100.00;100722.97;5033545;28;20060;-80
2023/05/12 02:38:28;;;;;;;34.38;22.75;;;;;;;12.98;100.00;100725.09;5037977;28;20096;-82
2023/05/12 02:40:55;;;;;;;33.58;21.63;;;;;;;12.77;100.00;100704.63;5025750;28;20084;-81
2023/05/12 02:43:21;;;;;;;37.47;23.80;;;;;;;12.98;100.00;100721.66;5037054;28;20053;-81
2023/05/12 02:45:48;;;;;;;38.58;22.98;;;;;;;12.93;100.00;100715.09;5035796;28;20113;-80
2023/05/12 02:48:15;;;;;;;32.63;20.60;;;;;;;12.99;100.00;100720.66;5030973;28;20474;-81
2023/05/12 02:50:43;;;;;;;33.65;21.20;;;;;;;13.03;100.00;100714.09;5024920;28;20141;-81
2023/05/12 02:53:09;;;;;;;29.50;20.33;;;;;;;12.99;100.00;100713.59;5036660;28;20462;-82
2023/05/12 02:55:36;;;;;;;28.85;19.83;;;;;;;13.00;100.00;100712.63;5036438;28;20068;-80
2023/05/12 02:58:02;;;;;;;28.65;18.95;;;;;;;13.08;100.00;100714.41;5029307;28;20501;-80
2023/05/12 03:00:29;;;;;;;31.20;19.95;;;;;;;13.00;100.00;100715.25;5036676;28;20092;-82
2023/05/12 03:02:55;;;;;;;28.45;18.52;;;;;;;13.00;100.00;100709.19;5037220;28;20325;-82
2023/05/12 03:05:22;;;;;;;24.40;17.05;;;;;;;12.93;100.00;100714.28;5028556;28;20262;-81
2023/05/12 03:07:50;;;;;;;25.38;17.00;;;;;;;12.90;100.00;100710.19;5038433;28;20136;-81
2023/05/12 03:10:17;;;;;;;23.40;15.80;;;;;;;12.89;100.00;100705.09;5038301;28;20129;-81
2023/05/12 03:12:43;;;;;;;20.42;15.00;;;;;;;12.89;100.00;100719.06;5041270;28;20053;-81
2023/05/12 03:15:11;;;;;;;19.60;14.57;;;;;;;12.92;100.00;100705.59;5039667;28;20568;-82
2023/05/12 03:17:37;;;;;;;21.45;14.75;;;;;;;12.91;100.00;100714.44;5030003;28;20482;-81
2023/05/12 03:20:05;;;;;;;19.15;14.25;;;;;;;12.91;100.00;100714.44;5036927;28;20053;-82
2023/05/12 03:22:32;;;;;;;19.83;14.23;;;;;;;12.86;100.00;100719.38;5026211;28;20080;-82
2023/05/12 03:25:00;;;;;;;20.95;14.77;;;;;;;12.78;100.00;100715.97;5036465;28;20052;-80
2023/05/12 03:27:26;;;;;;;20.15;13.40;;;;;;;12.76;100.00;100716.13;5035061;28;20136;-80
2023/05/12 03:29:53;;;;;;;19.92;14.35;;;;;;;12.71;100.00;100707.16;5040476;28;20087;-83
2023/05/12 03:32:19;;;;;;;19.10;14.25;;;;;;;12.69;100.00;100707.31;5034779;28;20109;-80
2023/05/12 03:34:46;;;;;;;22.25;15.63;;;;;;;12.69;100.00;100707.31;5043947;28;20124;-81
2023/05/12 03:37:13;;;;;;;26.80;15.82;;;;;;;12.75;100.00;100709.28;5042414;28;20088;-80
2023/05/12 03:39:39;;;;;;;23.83;14.80;;;;;;;12.82;100.00;100699.69;5041473;28;20134;-81
2023/05/12 03:42:07;;;;;;;21.80;14.43;;;;;;;12.78;100.00;100708.91;5037322;28;20113;-80
2023/05/12 03:44:34;;;;;;;17.95;12.90;;;;;;;12.69;100.00;100707.31;5041631;28;20109;-81
2023/05/12 03:47:01;;;;;;;20.00;13.50;;;;;;;12.71;100.00;100710.59;5033044;28;20132;-80
2023/05/12 03:49:27;;;;;;;17.90;12.90;;;;;;;12.79;100.00;100721.03;5038261;28;20056;-81
2023/05/12 03:51:54;;;;;;;18.67;13.48;;;;;;;12.84;100.00;100716.09;5044064;28;20073;-82
2023/05/12 03:54:26;;;;;;;22.55;14.60;;;;;;;12.93;100.00;100719.53;5041021;28;20049;-82
2023/05/12 03:56:53;;;;;;;23.20;16.70;;;;;;;12.83;100.00;100716.28;5033861;28;20129;-81
2023/05/12 03:59:21;;;;;;;25.95;17.05;;;;;;;12.84;100.00;100713.47;5041383;28;20136;-81
2023/05/12 04:01:47;;;;;;;28.20;18.02;;;;;;;12.76;100.00;100713.50;5041554;28;20128;-81
2023/05/12 04:04:14;;;;;;;28.10;19.05;;;;;;;12.83;100.00;100716.28;5038099;28;20529;-82
2023/05/12 04:06:41;;;;;;;29.58;18.55;;;;;;;12.85;100.00;100717.75;5024095;28;20141;-82
2023/05/12 04:09:11;;;;;;;27.20;17.73;;;;;;;12.85;100.00;100717.75;5029101;28;20049;-82
2023/05/12 04:11:37;;;;;;;24.27;16.75;;;;;;;12.70;100.00;100687.13;5033034;28;20479;-81
2023/05/12 04:14:04;;;;;;;23.98;16.77;;;;;;;12.93;100.00;100725.59;5024844;28;20104;-82
2023/05/12 04:16:34;;;;;;;26.67;17.80;;;;;;;12.88;100.00;100727.09;5040479;28;20118;-82
2023/05/12 04:19:01;;;;;;;23.83;16.83;;;;;;;12.92;100.00;100734.47;5021787;28;20088;-80
2023/05/12 04:21:27;;;;;;;22.75;16.27;;;;;;;12.99;100.00;100737.25;5021310;28;20084;-81
2023/05/12 04:23:54;;;;;;;22.38;14.88;;;;;;;13.07;100.00;100729.34;5044740;28;20081;-80
2023/05/12 04:26:20;;;;;;;20.80;14.55;;;;;;;13.04;100.00;100739.38;5045378;28;20052;-80
2023/05/12 04:28:47;;;;;;;17.65;12.73;;;;;;;13.02;100.00;100738.72;5037259;28;20049;-79
2023/05/12 04:31:14;;;;;;;18.63;13.55;;;;;;;13.00;100.00;100743.31;5032474;28;20114;-80
2023/05/12 04:33:42;;;;;;;17.25;12.90;;;;;;;12.86;100.00;100735.16;5026338;28;20045;-81
2023/05/12 04:36:09;;;;;;;19.70;13.63;;;;;;;12.89;100.00;100737.44;5026836;28;20126;-82
2023/05/12 04:38:35;;;;;;;21.35;14.73;;;;;;;12.95;100.00;100735.94;5042260;28;20077;-81
2023/05/12 04:41:02;;;;;;;24.27;16.13;;;;;;;12.96;100.00;100742.84;5023773;28;20595;-80
2023/05/12 04:43:29;;;;;;;19.90;15.23;;;;;;;12.90;100.00;100740.88;5036283;28;20481;-81
2023/05/12 04:45:55;;;;;;;23.50;16.83;;;;;;;12.98;100.00;100746.13;5033969;28;20069;-81
2023/05/12 04:48:22;;;;;;;20.83;14.80;;;;;;;12.92;100.00;100747.59;5034392;28;20552;-81
2023/05/12 04:50:52;;;;;;;19.58;14.77;;;;;;;13.05;100.00;100751.53;5039105;28;20053;-80
2023/05/12 04:53:19;;;;;;;16.75;13.02;;;;;;;13.04;100.00;100740.19;5026703;28;20112;-80
2023/05/12 04:55:46;;;;;;;13.45;9.88;;;;;;;12.99;100.00;100742.50;5036601;28;20085;-80
2023/05/12 04:58:13;;;;;;;14.75;10.32;;;;;;;12.93;100.00;100736.13;5030551;28;20088;-81
2023/05/12 05:00:39;;;;;;;12.57;8.98;;;;;;;12.99;100.00;100747.75;5032313;28;20054;-84
2023/05/12 05:03:12;;;;;;;11.30;8.80;;;;;;;13.04;100.00;100744.63;5036021;28;20137;-83
2023/05/12 05:05:38;;;;;;;9.63;7.55;;;;;;;13.09;100.00;100748.38;5035715;28;20041;-82
2023/05/12 05:08:06;;;;;;;11.13;8.00;;;;;;;13.16;100.00;100748.56;5038191;28;20136;-81
2023/05/12 05:10:33;;;;;;;12.18;7.43;;;;;;;13.13;100.00;100754.13;5027904;28;20505;-79
2023/05/12 05:12:59;;;;;;;10.35;6.60;;;;;;;13.09;100.00;100752.81;5023136;28;20132;-81
2023/05/12 05:15:26;;;;;;;8.48;6.63;;;;;;;13.16;100.00;100759.06;5033076;28;20101;-83
2023/05/12 05:17:53;;;;;;;8.90;6.63;;;;;;;13.12;100.00;100753.31;5021037;28;20057;-80
2023/05/12 05:20:20;;;;;;;8.05;6.40;;;;;;;13.18;100.00;100763.19;5031921;28;20057;-80
2023/05/12 05:22:47;;;;;;;8.88;6.90;;;;;;;13.23;100.00;100757.41;5028679;28;20517;-82
2023/05/12 05:25:15;;;;;;;7.20;5.93;;;;;;;13.32;100.00;100753.75;5019617;28;20045;-81
2023/05/12 05:27:42;;;;;;;8.70;6.22;;;;;;;13.47;100.00;100764.34;5024086;28;20065;-80
2023/05/12 05:30:09;;;;;;;7.93;5.97;;;;;;;13.50;100.00;100770.09;5022834;28;20136;-80
2023/05/12 05:32:36;;;;;;;11.60;7.03;;;;;;;13.64;100.00;100770.38;5036297;28;20081;-80
2023/05/12 05:35:03;;;;;;;7.25;5.75;;;;;;;13.37;100.00;100761.13;5024039;28;20054;-79
2023/05/12 05:37:29;;;;;;;8.30;6.32;;;;;;;13.46;100.00;100774.06;5019523;28;20144;-80
2023/05/12 05:39:56;;;;;;;6.68;5.50;;;;;;;13.50;100.00;100759.56;5034814;28;20103;-80
2023/05/12 05:42:24;;;;;;;8.35;6.38;;;;;;;13.50;100.00;100772.72;5035306;28;20141;-81
2023/05/12 05:44:51;;;;;;;6.70;5.97;;;;;;;13.50;100.00;100772.72;5023870;28;20046;-80
2023/05/12 05:47:17;;;;;;;11.90;5.85;;;;;;;13.50;100.00;100785.88;5018768;28;20153;-80
2023/05/12 05:49:44;;;;;;;11.10;5.85;;;;;;;13.51;100.00;100784.06;5029143;28;20085;-81
2023/05/12 05:52:14;;;;;;;7.47;5.95;;;;;;;13.50;100.00;100780.59;5025711;28;20077;-80
2023/05/12 05:54:41;;;;;;;8.65;6.72;;;;;;;13.51;100.00;100790.13;5031437;28;20560;-81
2023/05/12 05:57:07;;;;;;;9.52;5.80;;;;;;;13.64;100.00;100791.41;5031734;28;20045;-79
2023/05/12 05:59:35;;;;;;;8.25;5.90;;;;;;;13.66;100.00;100792.06;5021718;28;20113;-79
2023/05/12 06:02:02;;;;;;;7.93;6.00;;;;;;;13.64;100.00;100800.09;5016762;28;20113;-78
2023/05/12 06:04:29;;;;;;;9.88;6.47;;;;;;;13.63;100.00;100801.09;5017295;28;20050;-77
2023/05/12 06:06:55;;;;;;;8.85;6.22;;;;;;;13.52;100.00;100794.41;5027790;28;20373;-79
2023/05/12 06:09:22;;;;;;;7.25;6.07;;;;;;;13.44;100.00;100807.56;5022501;28;20089;-80
2023/05/12 06:11:49;;;;;;;8.43;6.10;;;;;;;13.74;100.00;100811.22;5030127;28;20056;-78
2023/05/12 06:14:16;;;;;;;7.63;6.30;;;;;;;13.38;100.00;100810.06;5022245;28;20054;-79
2023/05/12 06:16:44;;;;;;;7.32;6.57;;;;;;;13.60;100.00;100815.41;5033150;28;20115;-79
2023/05/12 06:19:11;;;;;;;8.45;5.90;;;;;;;13.52;100.00;100817.25;5018446;28;20407;-80
2023/05/12 06:21:37;;;;;;;10.30;6.55;;;;;;;13.75;100.00;100825.19;5038672;28;20095;-80
2023/05/12 06:24:04;;;;;;;8.68;6.38;;;;;;;13.95;100.00;100814.06;5040302;28;20084;-80
2023/05/12 06:26:30;;;;;;;7.82;6.45;;;;;;;14.16;100.00;100810.81;5031056;28;20132;-80
2023/05/12 06:28:57;;;;;;;12.43;6.53;;;;;;;14.45;100.00;100814.59;5033825;28;20088;-79
2023/05/12 06:31:25;;;;;;;9.77;6.82;;;;;;;14.31;100.00;100818.75;5040421;28;20072;-80
2023/05/12 06:33:53;;;;;;;7.18;6.25;;;;;;;14.30;100.00;100817.13;5042398;28;20080;-80
2023/05/12 06:36:19;;;;;;;12.00;6.25;;;;;;;14.28;99.85;100811.22;5023613;28;20109;-79
2023/05/12 06:38:46;;;;;;;7.38;6.00;;;;;;;14.18;100.00;100814.06;5026872;28;20470;-81
2023/05/12 06:41:13;;;;;;;8.52;6.20;;;;;;;14.63;100.00;100823.00;5033397;28;20137;-79
2023/05/12 06:43:40;;;;;;;17.63;7.72;;;;;;;14.43;98.22;100814.75;5018814;28;20133;-80
2023/05/12 06:46:07;;;;;;;9.25;6.22;;;;;;;14.54;97.63;100813.53;5037676;28;20046;-81
2023/05/12 06:48:34;;;;;;;10.68;6.55;;;;;;;14.70;96.97;100823.91;5023182;28;20046;-81
2023/05/12 06:51:02;;;;;;;6.93;5.90;;;;;;;15.59;94.56;100815.09;5017286;28;20070;-80
2023/05/12 06:53:28;;;;;;;7.15;5.30;;;;;;;16.02;91.61;100811.72;5018774;28;20085;-79
2023/05/12 06:55:55;;;;;;;6.82;4.88;;;;;;;16.53;88.40;100807.13;5016431;28;20484;-80
2023/05/12 06:58:21;;;;;;;9.23;5.00;;;;;;;15.42;89.54;100815.44;5014616;28;20486;-79
2023/05/12 07:00:48;;;;;;;7.68;5.35;;;;;;;15.41;90.03;100826.97;5031583;28;20136;-80
2023/05/12 07:03:15;;;;;;;7.28;5.40;;;;;;;14.97;90.98;100825.16;5030141;28;20064;-77
2023/05/12 07:05:42;;;;;;;6.18;5.45;;;;;;;15.24;91.81;100826.34;5028085;28;20124;-79
2023/05/12 07:08:09;;;;;;;6.05;5.45;;;;;;;15.04;92.14;100825.25;5031843;28;20045;-80
2023/05/12 07:10:36;;;;;;;8.13;5.32;;;;;;;15.01;92.72;100833.50;5037848;28;20104;-79
2023/05/12 07:13:03;;;;;;;6.25;5.57;;;;;;;14.82;92.43;100832.19;5016649;28;20065;-77
2023/05/12 07:15:30;;;;;;;6.47;5.57;;;;;;;14.87;92.76;100835.94;5029425;28;20074;-79
2023/05/12 07:17:56;;;;;;;7.22;5.47;;;;;;;15.16;91.64;100829.06;5018313;28;20077;-79
2023/05/12 07:20:25;;;;;;;9.50;5.97;;;;;;;15.09;92.43;100839.53;5026927;28;20081;-79
2023/05/12 07:22:53;;;;;;;7.75;5.78;;;;;;;14.90;91.61;100832.13;5027818;28;20057;-78
2023/05/12 07:25:21;;;;;;;8.65;5.72;;;;;;;15.53;91.08;100842.16;5030530;28;20053;-79
2023/05/12 07:27:48;;;;;;;6.80;5.72;;;;;;;15.43;89.91;100831.06;5031755;28;20485;-80
2023/05/12 07:30:15;;;;;;;6.55;5.65;;;;;;;15.68;90.85;100839.53;5027334;28;20041;-80
2023/05/12 07:32:42;;;;;;;6.95;5.82;;;;;;;15.07;90.74;100841.53;5031149;28;20105;-79
2023/05/12 07:35:11;;;;;;;7.78;5.57;;;;;;;14.91;91.14;100839.03;5036250;28;20076;-80
2023/05/12 07:37:38;;;;;;;6.15;5.43;;;;;;;14.94;91.02;100841.31;5038712;23;20063;-78
2023/05/12 07:40:06;;;;;;;7.03;5.38;;;;;;;14.93;90.55;100851.03;4937147;29;20071;-78
2023/05/12 07:42:36;;;;;;;6.80;5.15;;;;;;;14.64;90.66;100845.72;4946456;29;20056;-78
2023/05/12 07:45:04;;;;;;;9.30;6.10;;;;;;;14.79;91.44;100851.00;4965224;28;20079;-78
2023/05/12 07:47:31;;;;;;;6.88;5.50;;;;;;;14.84;91.31;100857.38;4952975;29;20043;-79
2023/05/12 07:49:57;;;;;;;6.95;4.75;;;;;;;15.06;90.54;100845.16;4938625;29;20126;-78
2023/05/12 07:52:24;;;;;;;6.28;4.80;;;;;;;14.89;89.86;100849.75;4933840;29;20089;-78
2023/05/12 07:54:51;;;;;;;8.52;5.50;;;;;;;14.94;90.45;100851.84;4949376;28;20480;-79
2023/05/12 07:57:17;;;;;;;6.90;4.93;;;;;;;14.83;89.54;100852.28;4956021;28;20154;-78
2023/05/12 07:59:46;;;;;;;6.28;4.53;;;;;;;14.81;89.70;100849.81;4942200;29;20101;-79
2023/05/12 08:02:12;;;;;;;7.15;4.88;;;;;;;14.99;89.49;100838.97;4938024;29;20063;-78
2023/05/12 08:04:39;;;;;;;6.53;4.75;;;;;;;15.11;88.92;100855.97;4931387;28;20139;-78
2023/05/12 08:07:05;;;;;;;9.68;5.03;;;;;;;15.33;87.81;100848.97;4940334;28;20082;-78
2023/05/12 08:09:32;;;;;;;5.60;4.63;;;;;;;15.06;87.92;100849.59;4935427;29;20178;-78
2023/05/12 08:11:58;;;;;;;4.93;4.43;;;;;;;14.93;88.08;100860.75;4939345;29;20116;-79
2023/05/12 08:14:25;;;;;;;5.85;4.45;;;;;;;14.96;87.81;100855.13;4943121;29;20086;-79
2023/05/12 08:16:53;;;;;;;6.47;4.40;;;;;;;15.04;87.58;100862.16;4940822;29;20298;-78
2023/05/12 08:19:20;;;;;;;4.72;4.25;;;;;;;15.12;87.48;100854.94;4936095;29;20058;-80
2023/05/12 08:21:47;;;;;;;6.13;4.20;;;;;;;15.41;86.69;100859.44;4941373;29;20135;-79
2023/05/12 08:24:13;;;;;;;4.80;4.30;;;;;;;15.55;85.92;100863.91;4941620;29;20052;-80
2023/05/12 08:26:40;;;;;;;5.35;4.28;;;;;;;15.55;86.02;100858.63;4939084;29;20075;-79
2023/05/12 08:29:07;;;;;;;4.55;4.10;;;;;;;15.75;86.12;100869.44;4935141;29;20113;-79
2023/05/12 08:31:34;;;;;;;4.80;3.80;;;;;;;15.68;84.52;100863.28;4936041;29;20470;-78
2023/05/12 08:34:02;;;;;;;5.78;4.20;;;;;;;15.59;83.92;100859.94;4932679;29;20063;-79
2023/05/12 08:36:28;;;;;;;6.60;4.30;;;;;;;15.64;83.62;100863.81;4940656;29;20076;-79
2023/05/12 08:38:55;;;;;;;6.10;4.03;;;;;;;15.44;83.91;100867.00;4939775;29;20119;-78
2023/05/12 08:41:31;;;;;;;4.57;4.18;;;;;;;15.71;83.50;100873.47;4934744;29;20052;-78
2023/05/12 08:43:59;;;;;;;5.07;4.10;;;;;;;15.68;84.06;100875.63;4933964;29;21692;-78
2023/05/12 08:46:26;;;;;;;5.38;4.22;;;;;;;15.85;83.56;100864.72;4943415;29;20079;-79
2023/05/12 08:48:55;;;;;;;6.13;4.40;;;;;;;15.67;82.76;100879.28;4940042;29;20082;-80
2023/05/12 08:51:24;;;;;;;4.28;3.85;;;;;;;15.90;83.51;100885.28;4940456;29;20107;-79
2023/05/12 08:53:53;;;;;;;4.95;4.38;;;;;;;16.11;83.04;100893.22;4930210;29;20052;-79
2023/05/12 08:56:21;;;;;;;5.35;4.18;;;;;;;15.87;82.27;100881.19;4942133;29;20139;-78
2023/05/12 08:58:48;;;;;;;7.53;4.20;;;;;;;16.22;81.46;100879.53;4939760;29;20078;-80
2023/05/12 09:01:16;;;;;;;4.80;4.30;;;;;;;16.52;81.45;100888.19;4940990;29;20578;-80
2023/05/12 09:03:44;;;;;;;4.47;4.00;;;;;;;16.17;80.52;100868.72;4938888;29;20048;-79
2023/05/12 09:06:12;;;;;;;10.00;4.43;;;;;;;16.53;80.60;100883.72;4934657;29;20048;-80
2023/05/12 09:08:41;;;;;;;4.45;3.60;;;;;;;16.45;80.42;100876.75;4927094;29;20072;-79
2023/05/12 09:11:12;;;;;;;5.18;3.95;;;;;;;16.83;79.53;100871.22;4923209;29;20167;-78
2023/05/12 09:13:46;;;;;;;4.25;3.70;;;;;;;16.79;79.46;100881.34;4937963;28;20054;-77
2023/05/12 09:16:14;;;;;;;4.43;3.90;;;;;;;16.57;78.45;100882.31;4930319;28;20239;-78
2023/05/12 09:18:50;;;;;;;6.10;4.05;;;;;;;16.51;78.68;100868.06;4974607;28;20121;-80
2023/05/12 09:21:17;;;;;;;7.35;3.78;;;;;;;17.08;77.21;100869.78;4943930;29;20055;-79
2023/05/12 09:23:57;;;;;;;4.57;3.75;;;;;;;17.09;76.83;100865.28;4933651;29;20100;-79
2023/05/12 09:26:24;;;;;;;4.20;3.80;;;;;;;17.17;76.56;100868.63;4922384;29;20445;-79
2023/05/12 09:28:53;;;;;;;6.80;3.95;;;;;;;17.46;76.33;100870.22;4936251;28;20523;-78
2023/05/12 09:31:21;;;;;;;4.68;3.90;;;;;;;17.55;75.11;100874.34;4936009;29;20089;-79
2023/05/12 09:33:48;;;;;;;5.68;4.00;;;;;;;17.60;74.98;100873.75;4936434;29;20127;-79
2023/05/12 09:36:18;;;;;;;6.78;3.80;;;;;;;17.11;75.88;100882.59;4937005;28;20139;-79
2023/05/12 09:38:44;;;;;;;6.47;4.07;;;;;;;17.29;75.86;100894.53;4936381;29;20396;-79
2023/05/12 09:41:12;;;;;;;4.40;4.00;;;;;;;17.01;75.89;100890.06;4935959;28;20056;-79
2023/05/12 09:43:44;;;;;;;4.55;4.10;;;;;;;17.29;76.97;100895.34;4937114;29;20078;-76
2023/05/12 09:46:11;;;;;;;5.57;4.57;;;;;;;17.57;75.68;100890.81;4939882;29;20048;-79
2023/05/12 09:48:38;;;;;;;5.40;4.10;;;;;;;17.49;74.26;100888.34;4942593;29;20079;-79
2023/05/12 09:51:09;;;;;;;4.35;3.95;;;;;;;17.67;74.66;100894.97;4923375;29;20437;-79
2023/05/12 09:53:43;;;;;;;4.95;4.38;;;;;;;17.56;74.70;100886.53;4938707;29;20118;-78
2023/05/12 09:56:13;;;;;;;4.70;4.20;;;;;;;17.72;74.87;100893.38;4929035;29;20051;-79
2023/05/12 09:58:42;;;;;;;7.95;4.32;;;;;;;17.64;75.29;100890.06;4933815;29;20101;-77
2023/05/12 10:01:09;;;;;;;7.38;4.65;;;;;;;18.02;76.00;100904.50;4934092;28;20063;-78
2023/05/12 10:03:38;;;;;;;6.38;5.05;;;;;;;18.45;75.15;100901.56;4933321;29;20062;-79
2023/05/12 10:06:07;;;;;;;5.28;4.47;;;;;;;18.30;74.85;100907.06;4933349;29;20051;-79
2023/05/12 10:08:38;;;;;;;4.55;4.05;;;;;;;18.35;74.52;100909.09;4933346;28;20055;-78
2023/05/12 10:11:05;;;;;;;6.03;4.15;;;;;;;17.75;73.54;100881.59;4925239;29;20087;-78
2023/05/12 10:13:34;;;;;;;6.13;4.25;;;;;;;18.40;71.71;100872.22;4934037;28;20062;-78
2023/05/12 10:16:01;;;;;;;7.47;4.55;;;;;;;18.47;71.64;100883.63;4932392;28;20061;-78
2023/05/12 10:18:28;;;;;;;5.20;4.00;;;;;;;19.20;70.91;100881.84;4933463;29;20054;-79
2023/05/12 10:20:57;;;;;;;6.70;4.20;;;;;;;19.27;69.82;100881.84;4927093;29;20135;-79
2023/05/12 10:23:26;;;;;;;5.40;4.50;;;;;;;19.01;69.74;100869.41;4938303;28;20507;-78
2023/05/12 10:25:57;;;;;;;4.40;3.80;;;;;;;19.55;68.85;100863.81;4935361;29;20130;-79
2023/05/12 10:28:24;;;;;;;7.95;4.60;;;;;;;19.61;69.19;100867.50;4933578;29;20056;-77
2023/05/12 10:30:53;;;;;;;5.28;4.13;;;;;;;19.96;67.57;100852.84;4933512;29;20115;-77
2023/05/12 10:33:20;;;;;;;5.97;4.43;;;;;;;19.80;67.55;100856.00;4931760;29;20048;-78
2023/05/12 10:35:48;;;;;;;5.00;4.50;;;;;;;19.96;65.91;100842.19;4932361;29;20094;-78
2023/05/12 10:38:16;;;;;;;6.28;4.30;;;;;;;19.53;67.09;100856.06;4933578;28;20106;-79
2023/05/12 10:40:51;;;;;;;10.43;4.80;;;;;;;19.67;66.36;100856.03;4936149;29;20056;-78
2023/05/12 10:43:23;;;;;;;9.55;4.30;;;;;;;19.72;66.49;100858.88;4939734;29;20055;-78
2023/05/12 10:46:10;;;;;;;4.90;4.40;;;;;;;19.62;67.42;100863.81;4944705;29;20498;-78
2023/05/12 10:48:38;;;;;;;4.70;4.00;;;;;;;19.62;66.80;100850.53;4951159;29;20048;-77
2023/05/12 10:51:08;;;;;;;7.20;4.30;;;;;;;19.39;68.34;100870.38;4947501;29;20052;-77
2023/05/12 10:53:35;;;;;;;7.13;5.32;;;;;;;19.40;68.45;100871.19;4933302;29;20519;-78
2023/05/12 10:56:04;;;;;;;4.82;4.10;;;;;;;19.42;67.70;100864.66;4934543;29;20090;-78
2023/05/12 10:58:31;;;;;;;5.85;4.82;;;;;;;19.44;68.47;100867.91;4931967;28;20059;-77
2023/05/12 11:01:05;;;;;;;5.28;4.68;;;;;;;19.43;68.43;100854.84;4924503;28;20074;-78
2023/05/12 11:03:34;;;;;;;5.03;4.45;;;;;;;18.82;68.40;100869.25;4926005;29;20063;-78
2023/05/12 11:06:03;;;;;;;5.85;4.68;;;;;;;18.77;69.17;100870.88;4932953;28;20056;-78
2023/05/12 11:08:33;;;;;;;9.25;4.80;;;;;;;18.63;69.85;100875.34;4933487;28;20087;-77
2023/05/12 11:11:00;;;;;;;6.20;5.07;;;;;;;18.58;70.25;100878.56;4934881;29;20086;-78
2023/05/12 11:13:28;;;;;;;7.95;4.90;;;;;;;18.68;70.25;100878.19;4926310;29;20094;-77
2023/05/12 11:15:56;;;;;;;5.40;4.90;;;;;;;18.83;70.24;100876.16;4934118;28;20131;-77